createdAt,value
2022-09-13T00:01:39.787Z,9.60
2022-09-13T00:03:30.093Z,10.52
2022-09-13T00:05:20.882Z,10.77
2022-09-13T00:07:11.482Z,10.68
2022-09-13T00:09:01.926Z,10.38
2022-09-13T00:10:53.970Z,14.50
2022-09-13T00:12:44.695Z,11.57
2022-09-13T00:14:35.290Z,11.80
2022-09-13T00:16:28.816Z,12.77
2022-09-13T00:18:19.248Z,16.95
2022-09-13T00:20:10.027Z,10.15
2022-09-13T00:22:00.534Z,13.13
2022-09-13T00:23:52.841Z,12.63
2022-09-13T00:27:35.509Z,12.00
2022-09-13T00:29:26.299Z,14.35
2022-09-13T00:31:16.963Z,13.27
2022-09-13T00:33:07.507Z,11.43
2022-09-13T00:34:57.910Z,11.60
2022-09-13T00:36:48.585Z,11.05
2022-09-13T00:38:39.614Z,8.63
2022-09-13T00:40:30.018Z,11.73
2022-09-13T00:42:25.011Z,8.73
2022-09-13T00:44:53.231Z,10.98
2022-09-13T00:46:46.266Z,9.48
2022-09-13T00:48:37.418Z,13.98
2022-09-13T00:50:30.959Z,15.48
2022-09-13T00:52:23.128Z,13.05
2022-09-13T00:54:14.996Z,13.88
2022-09-13T00:56:09.620Z,14.30
2022-09-13T00:58:04.354Z,21.10
2022-09-13T00:59:59.178Z,12.57
2022-09-13T01:01:53.607Z,14.32
2022-09-13T01:03:45.746Z,17.98
2022-09-13T01:07:27.186Z,15.10
2022-09-13T01:09:17.591Z,15.95
2022-09-13T01:11:12.952Z,17.23
2022-09-13T01:13:07.086Z,17.65
2022-09-13T01:14:59.909Z,18.73
2022-09-13T01:16:50.540Z,21.80
2022-09-13T01:18:40.831Z,19.08
2022-09-13T01:20:54.598Z,16.65
2022-09-13T01:23:20.117Z,15.65
2022-09-13T01:25:44.281Z,19.60
2022-09-13T01:27:44.875Z,17.13
2022-09-13T01:30:07.705Z,17.40
2022-09-13T01:34:02.485Z,15.38
2022-09-13T01:36:19.526Z,16.00
2022-09-13T01:38:20.572Z,18.55
2022-09-13T01:40:18.040Z,18.02
2022-09-13T01:42:15.144Z,20.08
2022-09-13T01:44:13.984Z,12.32
2022-09-13T01:46:06.015Z,14.48
2022-09-13T01:48:00.326Z,16.25
2022-09-13T01:49:59.267Z,15.88
2022-09-13T01:51:54.465Z,14.20
2022-09-13T01:53:51.167Z,15.55
2022-09-13T01:55:46.406Z,13.98
2022-09-13T01:57:42.797Z,17.33
2022-09-13T01:59:38.483Z,13.05
2022-09-13T02:01:32.046Z,14.45
2022-09-13T02:03:28.339Z,15.20
2022-09-13T02:05:23.971Z,14.57
2022-09-13T02:07:18.544Z,12.02
2022-09-13T02:09:11.872Z,11.20
2022-09-13T02:11:06.643Z,17.40
2022-09-13T02:12:58.765Z,14.00
2022-09-13T02:16:45.104Z,15.75
2022-09-13T02:18:39.184Z,15.60
2022-09-13T02:20:31.510Z,13.85
2022-09-13T02:22:23.961Z,15.52
2022-09-13T02:24:17.980Z,16.20
2022-09-13T02:26:10.049Z,16.10
2022-09-13T02:28:03.439Z,15.82
2022-09-13T02:29:58.364Z,14.75
2022-09-13T02:31:54.426Z,14.93
2022-09-13T02:33:49.603Z,14.85
2022-09-13T02:35:44.279Z,15.07
2022-09-13T02:37:37.471Z,13.05
2022-09-13T02:39:29.851Z,11.88
2022-09-13T02:41:23.582Z,11.95
2022-09-13T02:43:16.199Z,17.08
2022-09-13T02:47:06.943Z,17.67
2022-09-13T02:49:02.742Z,15.77
2022-09-13T02:50:59.129Z,14.25
2022-09-13T02:52:53.925Z,13.63
2022-09-13T02:54:49.713Z,19.83
2022-09-13T02:56:46.445Z,14.45
2022-09-13T02:58:42.593Z,18.27
2022-09-13T03:00:33.233Z,14.52
2022-09-13T03:02:27.236Z,15.13
2022-09-13T03:04:18.849Z,13.32
2022-09-13T03:06:09.557Z,14.73
2022-09-13T03:08:00.816Z,20.48
2022-09-13T03:09:54.421Z,14.50
2022-09-13T03:11:59.208Z,18.70
2022-09-13T03:13:58.862Z,14.00
2022-09-13T03:15:58.232Z,18.60
2022-09-13T03:17:54.918Z,12.32
2022-09-13T03:19:58.436Z,13.77
2022-09-13T03:22:02.773Z,13.55
2022-09-13T03:24:00.483Z,16.55
2022-09-13T03:26:07.617Z,13.80
2022-09-13T03:28:03.904Z,23.80
2022-09-13T03:29:57.206Z,13.57
2022-09-13T03:31:52.040Z,14.60
2022-09-13T03:33:47.023Z,13.85
2022-09-13T03:35:41.188Z,14.82
2022-09-13T03:37:35.943Z,13.52
2022-09-13T03:39:34.897Z,13.57
2022-09-13T03:41:29.762Z,15.50
2022-09-13T03:43:24.674Z,18.60
2022-09-13T03:45:17.711Z,16.65
2022-09-13T03:47:08.803Z,18.10
2022-09-13T03:49:02.258Z,18.23
2022-09-13T03:50:54.792Z,15.23
2022-09-13T03:54:38.309Z,17.20
2022-09-13T03:56:28.950Z,19.35
2022-09-13T03:58:20.636Z,18.88
2022-09-13T04:00:14.271Z,15.77
2022-09-13T04:02:05.199Z,19.05
2022-09-13T04:03:57.042Z,21.52
2022-09-13T04:05:47.631Z,17.50
2022-09-13T04:07:39.316Z,15.45
2022-09-13T04:09:30.102Z,14.57
2022-09-13T04:11:20.596Z,18.13
2022-09-13T04:13:10.985Z,16.52
2022-09-13T04:15:01.649Z,18.25
2022-09-13T04:16:52.541Z,15.98
2022-09-13T04:18:42.856Z,16.58
2022-09-13T04:20:33.518Z,18.88
2022-09-13T04:22:24.350Z,20.55
2022-09-13T04:24:16.758Z,20.98
2022-09-13T04:27:57.999Z,23.27
2022-09-13T04:29:49.070Z,20.65
2022-09-13T04:31:39.338Z,23.40
2022-09-13T04:33:29.560Z,19.38
2022-09-13T04:35:20.085Z,22.08
2022-09-13T04:37:10.635Z,19.00
2022-09-13T04:39:01.238Z,24.17
2022-09-13T04:40:54.211Z,23.25
2022-09-13T04:42:44.658Z,22.60
2022-09-13T04:44:35.376Z,22.38
2022-09-13T04:46:25.874Z,20.98
2022-09-13T04:48:17.179Z,24.42
2022-09-13T04:50:08.029Z,20.75
2022-09-13T04:51:58.327Z,23.00
2022-09-13T04:53:52.380Z,28.67
2022-09-13T04:55:43.081Z,28.25
2022-09-13T04:57:35.272Z,26.00
2022-09-13T04:59:25.687Z,24.02
2022-09-13T05:01:16.467Z,24.02
2022-09-13T05:03:07.069Z,24.23
2022-09-13T05:04:57.532Z,26.02
2022-09-13T05:06:47.808Z,23.52
2022-09-13T05:08:38.880Z,23.00
2022-09-13T05:10:29.158Z,23.98
2022-09-13T05:12:19.558Z,23.48
2022-09-13T05:14:11.954Z,25.83
2022-09-13T05:16:05.384Z,24.35
2022-09-13T05:17:55.867Z,26.42
2022-09-13T05:19:46.087Z,25.48
2022-09-13T05:21:36.675Z,26.30
2022-09-13T05:23:28.043Z,25.50
2022-09-13T05:25:18.396Z,26.05
2022-09-13T05:27:08.689Z,24.65
2022-09-13T05:28:59.769Z,28.15
2022-09-13T05:30:59.339Z,27.83
2022-09-13T05:32:49.735Z,27.17
2022-09-13T05:34:40.061Z,24.58
2022-09-13T05:36:30.509Z,29.77
2022-09-13T05:38:21.274Z,30.60
2022-09-13T05:40:12.723Z,29.85
2022-09-13T05:42:03.920Z,32.80
2022-09-13T05:43:58.553Z,28.48
2022-09-13T05:45:51.078Z,32.88
2022-09-13T05:47:42.894Z,32.08
2022-09-13T05:49:33.636Z,27.85
2022-09-13T05:51:24.606Z,29.88
2022-09-13T05:53:15.265Z,27.08
2022-09-13T05:55:06.319Z,28.52
2022-09-13T05:56:56.885Z,35.65
2022-09-13T05:58:48.453Z,30.77
2022-09-13T06:00:38.822Z,32.63
2022-09-13T06:02:29.164Z,34.05
2022-09-13T06:04:21.126Z,31.50
2022-09-13T06:06:11.599Z,32.03
2022-09-13T06:08:02.372Z,31.23
2022-09-13T06:09:52.812Z,29.92
2022-09-13T06:11:43.495Z,30.85
2022-09-13T06:13:34.714Z,31.67
2022-09-13T06:15:25.412Z,33.03
2022-09-13T06:17:15.649Z,32.70
2022-09-13T06:19:06.468Z,35.28
2022-09-13T06:21:02.553Z,38.50
2022-09-13T06:22:53.007Z,34.90
2022-09-13T06:24:43.659Z,41.28
2022-09-13T06:26:34.179Z,35.80
2022-09-13T06:28:24.638Z,35.97
2022-09-13T06:30:15.112Z,32.38
2022-09-13T06:32:06.156Z,33.35
2022-09-13T06:33:57.911Z,31.17
2022-09-13T06:35:48.760Z,31.23
2022-09-13T06:37:40.796Z,28.42
2022-09-13T06:39:32.031Z,25.42
2022-09-13T06:41:23.870Z,28.48
2022-09-13T06:45:06.251Z,23.10
2022-09-13T06:46:56.661Z,21.90
2022-09-13T06:48:47.587Z,19.05
2022-09-13T06:50:38.226Z,21.33
2022-09-13T06:52:28.512Z,19.33
2022-09-13T06:54:20.536Z,21.60
2022-09-13T06:56:13.155Z,16.35
2022-09-13T06:58:03.981Z,18.10
2022-09-13T06:59:54.673Z,17.80
2022-09-13T07:01:45.232Z,16.55
2022-09-13T07:03:35.659Z,15.82
2022-09-13T07:05:26.531Z,13.35
2022-09-13T07:07:16.887Z,12.68
2022-09-13T07:09:08.471Z,12.63
2022-09-13T07:11:00.438Z,10.95
2022-09-13T07:12:50.978Z,8.25
2022-09-13T07:14:41.210Z,7.78
2022-09-13T07:16:32.955Z,6.63
2022-09-13T07:18:23.347Z,6.38
2022-09-13T07:20:13.896Z,7.50
2022-09-13T07:22:04.427Z,7.72
2022-09-13T07:23:57.027Z,6.57
2022-09-13T07:25:54.278Z,3.67
2022-09-13T07:27:45.966Z,6.82
2022-09-13T07:29:36.724Z,8.38
2022-09-13T07:31:29.329Z,6.45
2022-09-13T07:33:19.622Z,5.95
2022-09-13T07:35:10.048Z,5.70
2022-09-13T07:37:00.635Z,5.95
2022-09-13T07:38:51.239Z,9.70
2022-09-13T07:40:41.851Z,13.18
2022-09-13T07:42:32.172Z,7.55
2022-09-13T07:44:24.024Z,11.77
2022-09-13T07:46:16.837Z,7.75
2022-09-13T07:48:07.361Z,12.38
2022-09-13T07:49:57.648Z,11.65
2022-09-13T07:51:47.971Z,10.95
2022-09-13T07:53:39.410Z,13.38
2022-09-13T07:55:29.928Z,7.70
2022-09-13T07:57:20.749Z,11.30
2022-09-13T07:59:13.092Z,7.40
2022-09-13T08:02:58.631Z,8.10
2022-09-13T08:04:49.170Z,10.73
2022-09-13T08:06:40.523Z,9.95
2022-09-13T08:08:31.430Z,12.00
2022-09-13T08:10:22.011Z,12.45
2022-09-13T08:12:12.306Z,10.48
2022-09-13T08:14:02.743Z,9.80
2022-09-13T08:15:54.908Z,13.50
2022-09-13T08:17:47.132Z,7.13
2022-09-13T08:19:37.934Z,8.27
2022-09-13T08:21:33.555Z,8.93
2022-09-13T08:23:24.247Z,7.03
2022-09-13T08:25:14.918Z,4.70
2022-09-13T08:27:05.690Z,7.97
2022-09-13T08:28:57.158Z,6.47
2022-09-13T08:30:47.939Z,8.90
2022-09-13T08:32:38.298Z,8.73
2022-09-13T08:34:30.177Z,5.10
2022-09-13T08:36:20.980Z,3.53
2022-09-13T08:38:11.548Z,7.43
2022-09-13T08:40:03.109Z,10.27
2022-09-13T08:42:07.233Z,5.45
2022-09-13T08:44:02.350Z,6.57
2022-09-13T08:45:58.219Z,7.72
2022-09-13T08:47:52.534Z,5.97
2022-09-13T08:49:45.944Z,7.93
2022-09-13T08:51:40.619Z,8.35
2022-09-13T08:53:31.991Z,3.13
2022-09-13T08:55:27.486Z,5.83
2022-09-13T08:57:21.807Z,6.38
2022-09-13T08:59:27.883Z,4.85
2022-09-13T09:01:29.652Z,3.53
2022-09-13T09:03:26.091Z,8.80
2022-09-13T09:05:20.049Z,4.05
2022-09-13T09:07:13.254Z,5.90
2022-09-13T09:09:06.701Z,5.18
2022-09-13T09:10:59.596Z,4.72
2022-09-13T09:12:52.369Z,6.97
2022-09-13T09:14:45.392Z,9.57
2022-09-13T09:16:39.415Z,11.60
2022-09-13T09:18:33.570Z,3.28
2022-09-13T09:20:28.081Z,5.90
2022-09-13T09:22:20.662Z,5.70
2022-09-13T09:24:16.140Z,6.10
2022-09-13T09:26:15.585Z,4.25
2022-09-13T09:28:11.995Z,5.32
2022-09-13T09:30:02.363Z,5.72
2022-09-13T09:32:02.029Z,7.22
2022-09-13T09:34:05.546Z,11.68
2022-09-13T09:36:00.995Z,3.22
2022-09-13T09:38:14.639Z,5.45
2022-09-13T09:40:06.488Z,6.57
2022-09-13T09:41:57.751Z,3.95
2022-09-13T09:43:50.518Z,3.85
2022-09-13T09:45:41.608Z,10.13
2022-09-13T09:47:39.668Z,9.85
2022-09-13T09:49:35.643Z,8.18
2022-09-13T09:51:28.713Z,9.43
2022-09-13T09:53:22.669Z,9.73
2022-09-13T09:55:22.455Z,6.30
2022-09-13T09:57:13.575Z,12.38
2022-09-13T09:59:04.046Z,13.55
2022-09-13T10:00:55.832Z,8.57
2022-09-13T10:02:46.962Z,6.75
2022-09-13T10:04:37.199Z,10.45
2022-09-13T10:06:29.262Z,10.20
2022-09-13T10:08:26.477Z,5.22
2022-09-13T10:10:21.995Z,5.60
2022-09-13T10:12:26.637Z,12.60
2022-09-13T10:14:35.349Z,10.27
2022-09-13T10:16:28.096Z,16.75
2022-09-13T10:18:42.750Z,6.80
2022-09-13T10:20:29.643Z,12.38
2022-09-13T10:22:22.129Z,9.20
2022-09-13T10:24:21.838Z,11.85
2022-09-13T10:26:15.042Z,7.05
2022-09-13T10:28:10.556Z,7.43
2022-09-13T10:30:02.145Z,5.20
2022-09-13T10:31:53.103Z,3.63
2022-09-13T10:33:47.720Z,5.05
2022-09-13T10:35:38.167Z,6.30
2022-09-13T10:37:30.257Z,9.43
2022-09-13T10:39:23.092Z,9.27
2022-09-13T10:41:22.770Z,20.58
2022-09-13T10:43:16.008Z,4.80
2022-09-13T10:45:08.162Z,6.40
2022-09-13T10:48:50.632Z,8.15
2022-09-13T10:50:41.518Z,9.35
2022-09-13T10:52:35.522Z,8.20
2022-09-13T10:54:26.537Z,9.02
2022-09-13T10:56:22.754Z,5.50
2022-09-13T10:58:20.697Z,4.97
2022-09-13T11:00:13.313Z,5.10
2022-09-13T11:02:25.806Z,4.05
2022-09-13T11:04:40.731Z,7.47
2022-09-13T11:06:37.864Z,7.38
2022-09-13T11:08:40.959Z,2.83
2022-09-13T11:10:35.427Z,4.35
2022-09-13T11:12:31.613Z,6.95
2022-09-13T11:14:34.430Z,7.22
2022-09-13T11:16:38.047Z,6.20
2022-09-13T11:18:53.278Z,5.47
2022-09-13T11:20:50.251Z,4.88
2022-09-13T11:23:13.512Z,6.47
2022-09-13T11:25:17.348Z,4.70
2022-09-13T11:27:14.325Z,6.53
2022-09-13T11:29:13.840Z,7.07
2022-09-13T11:31:13.538Z,6.32
2022-09-13T11:33:22.741Z,7.53
2022-09-13T11:35:26.074Z,6.68
2022-09-13T11:37:36.441Z,4.03
2022-09-13T11:39:31.655Z,5.50
2022-09-13T11:41:32.968Z,9.43
2022-09-13T11:43:37.816Z,10.77
2022-09-13T11:45:29.190Z,5.90
2022-09-13T11:47:25.869Z,7.43
2022-09-13T11:49:48.264Z,11.98
2022-09-13T11:51:49.537Z,5.82
2022-09-13T11:53:49.135Z,8.10
2022-09-13T11:55:42.659Z,5.68
2022-09-13T11:57:35.970Z,5.10
2022-09-13T11:59:35.573Z,8.57
2022-09-13T12:01:30.804Z,7.07
2022-09-13T12:03:25.909Z,4.97
2022-09-13T12:05:22.530Z,6.57
2022-09-13T12:07:22.590Z,5.00
2022-09-13T12:09:16.007Z,6.40
2022-09-13T12:11:14.040Z,6.43
2022-09-13T12:13:12.705Z,4.28
2022-09-13T12:15:06.726Z,6.20
2022-09-13T12:16:59.352Z,4.22
2022-09-13T12:18:52.025Z,6.25
2022-09-13T12:20:47.160Z,4.78
2022-09-13T12:22:37.799Z,4.63
2022-09-13T12:24:34.060Z,5.70
2022-09-13T12:26:29.631Z,7.50
2022-09-13T12:28:23.463Z,5.90
2022-09-13T12:30:16.184Z,4.63
2022-09-13T12:32:09.161Z,9.82
2022-09-13T12:34:00.430Z,6.03
2022-09-13T12:36:08.191Z,4.97
2022-09-13T12:38:16.077Z,8.40
2022-09-13T12:40:16.763Z,4.22
2022-09-13T12:42:36.227Z,5.30
2022-09-13T12:44:44.871Z,4.00
2022-09-13T12:47:05.694Z,6.85
2022-09-13T12:49:09.743Z,8.45
2022-09-13T12:51:08.720Z,3.78
2022-09-13T12:53:08.037Z,6.57
2022-09-13T12:55:46.607Z,4.93
2022-09-13T12:57:42.742Z,5.03
2022-09-13T13:00:08.423Z,7.75
2022-09-13T13:01:59.024Z,9.93
2022-09-13T13:03:53.723Z,5.53
2022-09-13T13:05:46.408Z,6.93
2022-09-13T13:07:38.210Z,6.35
2022-09-13T13:09:36.039Z,7.28
2022-09-13T13:11:27.527Z,9.98
2022-09-13T13:13:22.290Z,7.57
2022-09-13T13:16:03.674Z,5.35
2022-09-13T13:17:54.835Z,4.65
2022-09-13T13:19:45.150Z,8.45
2022-09-13T13:21:37.912Z,4.93
2022-09-13T13:23:30.197Z,7.07
2022-09-13T13:25:32.654Z,3.90
2022-09-13T13:27:48.034Z,4.65
2022-09-13T13:29:40.165Z,8.05
2022-09-13T13:31:37.399Z,10.40
2022-09-13T13:33:29.242Z,5.97
2022-09-13T13:35:29.886Z,6.82
2022-09-13T13:37:35.756Z,6.10
2022-09-13T13:39:40.621Z,5.47
2022-09-13T13:41:41.591Z,7.35
2022-09-13T13:43:33.602Z,7.90
2022-09-13T13:45:25.937Z,7.90
2022-09-13T13:48:07.194Z,6.75
2022-09-13T13:50:14.524Z,5.78
2022-09-13T13:52:34.546Z,5.65
2022-09-13T13:54:32.859Z,5.68
2022-09-13T13:56:32.379Z,6.07
2022-09-13T13:58:30.627Z,8.73
2022-09-13T14:00:22.538Z,12.15
2022-09-13T14:02:14.112Z,8.13
2022-09-13T14:04:37.815Z,18.58
2022-09-13T14:06:31.396Z,7.05
2022-09-13T14:08:32.829Z,6.35
2022-09-13T14:10:26.130Z,4.50
2022-09-13T14:12:37.948Z,7.05
2022-09-13T14:14:55.031Z,4.38
2022-09-13T14:16:53.901Z,8.07
2022-09-13T14:18:59.116Z,6.43
2022-09-13T14:21:01.921Z,9.27
2022-09-13T14:22:56.913Z,9.93
2022-09-13T14:24:48.485Z,6.03
2022-09-13T14:26:39.392Z,3.42
2022-09-13T14:28:29.806Z,9.70
2022-09-13T14:30:22.475Z,14.60
2022-09-13T14:32:16.935Z,5.47
2022-09-13T14:34:23.042Z,9.45
2022-09-13T14:36:20.328Z,11.15
2022-09-13T14:38:13.144Z,11.75
2022-09-13T14:40:16.548Z,9.10
2022-09-13T14:42:13.518Z,13.05
2022-09-13T14:44:23.705Z,7.90
2022-09-13T14:46:20.067Z,8.45
2022-09-13T14:48:16.611Z,12.50
2022-09-13T14:50:15.125Z,8.57
2022-09-13T14:52:11.006Z,12.48
2022-09-13T14:54:06.737Z,14.55
2022-09-13T14:56:19.721Z,16.95
2022-09-13T14:58:44.604Z,11.43
2022-09-13T15:00:51.978Z,10.95
2022-09-13T15:02:48.692Z,8.95
2022-09-13T15:04:43.083Z,7.13
2022-09-13T15:06:36.740Z,5.97
2022-09-13T15:08:49.535Z,7.30
2022-09-13T15:10:45.289Z,5.35
2022-09-13T15:12:53.934Z,6.20
2022-09-13T15:14:47.212Z,8.45
2022-09-13T15:16:50.024Z,7.03
2022-09-13T15:18:50.915Z,10.68
2022-09-13T15:21:01.658Z,5.75
2022-09-13T15:22:53.036Z,6.38
2022-09-13T15:24:48.151Z,6.20
2022-09-13T15:27:04.358Z,6.22
2022-09-13T15:29:02.757Z,8.68
2022-09-13T15:30:57.765Z,4.68
2022-09-13T15:32:50.510Z,7.18
2022-09-13T15:36:41.526Z,7.43
2022-09-13T15:38:45.654Z,13.38
2022-09-13T15:40:44.953Z,9.00
2022-09-13T15:42:36.299Z,6.95
2022-09-13T15:44:27.977Z,5.20
2022-09-13T15:46:21.362Z,10.40
2022-09-13T15:48:22.471Z,10.30
2022-09-13T15:50:23.359Z,7.15
2022-09-13T15:52:15.486Z,11.43
2022-09-13T15:54:13.431Z,9.40
2022-09-13T15:56:12.606Z,5.20
2022-09-13T15:58:04.012Z,6.70
2022-09-13T16:00:05.543Z,10.52
2022-09-13T16:01:57.960Z,10.18
2022-09-13T16:03:48.416Z,7.47
2022-09-13T16:05:38.960Z,7.85
2022-09-13T16:07:29.870Z,6.40
2022-09-13T16:09:21.787Z,9.75
2022-09-13T16:11:13.572Z,8.10
2022-09-13T16:14:54.653Z,10.13
2022-09-13T16:16:45.721Z,7.47
2022-09-13T16:18:36.008Z,12.30
2022-09-13T16:20:26.793Z,5.32
2022-09-13T16:22:17.806Z,5.65
2022-09-13T16:24:08.026Z,6.10
2022-09-13T16:25:59.223Z,7.60
2022-09-13T16:27:51.208Z,5.88
2022-09-13T16:29:42.268Z,8.90
2022-09-13T16:31:32.851Z,9.63
2022-09-13T16:33:23.801Z,8.77
2022-09-13T16:35:14.832Z,7.47
2022-09-13T16:37:05.390Z,11.35
2022-09-13T16:38:56.175Z,9.32
2022-09-13T16:40:46.534Z,10.50
2022-09-13T16:42:36.927Z,9.20
2022-09-13T16:44:28.996Z,7.25
2022-09-13T16:46:20.088Z,6.55
2022-09-13T16:48:10.980Z,9.52
2022-09-13T16:50:01.505Z,9.30
2022-09-13T16:51:52.013Z,7.60
2022-09-13T16:53:42.481Z,7.60
2022-09-13T16:55:32.908Z,7.80
2022-09-13T16:57:23.443Z,7.00
2022-09-13T16:59:14.066Z,5.78
2022-09-13T17:01:06.318Z,6.70
2022-09-13T17:02:56.701Z,9.77
2022-09-13T17:04:47.780Z,7.55
2022-09-13T17:06:38.631Z,7.38
2022-09-13T17:08:29.631Z,11.93
2022-09-13T17:10:21.179Z,9.75
2022-09-13T17:12:14.013Z,10.65
2022-09-13T17:14:06.927Z,11.80
2022-09-13T17:15:57.396Z,9.82
2022-09-13T17:17:48.904Z,16.48
2022-09-13T17:19:39.438Z,15.52
2022-09-13T17:21:30.664Z,8.40
2022-09-13T17:23:21.240Z,9.52
2022-09-13T17:25:11.861Z,7.32
2022-09-13T17:27:02.520Z,7.47
2022-09-13T17:28:52.942Z,6.63
2022-09-13T17:30:44.977Z,6.43
2022-09-13T17:32:35.324Z,13.02
2022-09-13T17:34:27.398Z,14.82
2022-09-13T17:38:08.440Z,9.43
2022-09-13T17:39:59.474Z,5.35
2022-09-13T17:41:50.301Z,10.20
2022-09-13T17:43:41.401Z,11.07
2022-09-13T17:45:31.939Z,6.22
2022-09-13T17:47:22.219Z,9.40
2022-09-13T17:49:12.621Z,8.75
2022-09-13T17:51:05.834Z,7.75
2022-09-13T17:52:56.479Z,8.38
2022-09-13T17:54:46.688Z,6.65
2022-09-13T17:56:39.101Z,8.88
2022-09-13T17:58:29.634Z,8.18
2022-09-13T18:00:20.058Z,12.23
2022-09-13T18:02:10.648Z,9.07
2022-09-13T18:04:01.435Z,6.28
2022-09-13T18:05:55.092Z,11.90
2022-09-13T18:07:46.751Z,10.75
2022-09-13T18:09:37.275Z,11.23
2022-09-13T18:11:27.811Z,18.70
2022-09-13T18:13:18.696Z,16.45
2022-09-13T18:15:09.946Z,10.02
2022-09-13T18:17:00.356Z,13.77
2022-09-13T18:18:52.160Z,10.95
2022-09-13T18:20:45.610Z,11.25
2022-09-13T18:22:35.938Z,5.43
2022-09-13T18:24:28.097Z,13.88
2022-09-13T18:26:19.954Z,8.35
2022-09-13T18:28:10.506Z,8.93
2022-09-13T18:30:00.814Z,11.85
2022-09-13T18:31:51.506Z,12.50
2022-09-13T18:33:42.592Z,7.35
2022-09-13T18:35:33.319Z,14.48
2022-09-13T18:37:24.139Z,12.50
2022-09-13T18:39:17.433Z,15.73
2022-09-13T18:41:11.180Z,14.20
2022-09-13T18:43:01.635Z,10.93
2022-09-13T18:44:52.437Z,10.52
2022-09-13T18:46:43.275Z,11.43
2022-09-13T18:48:35.826Z,18.05
2022-09-13T18:52:16.603Z,9.90
2022-09-13T18:54:08.420Z,13.70
2022-09-13T18:56:00.865Z,11.50
2022-09-13T18:57:52.934Z,11.88
2022-09-13T18:59:43.526Z,9.25
2022-09-13T19:01:36.586Z,11.57
2022-09-13T19:03:27.232Z,10.10
2022-09-13T19:05:18.010Z,15.50
2022-09-13T19:07:08.623Z,11.88
2022-09-13T19:09:00.640Z,12.02
2022-09-13T19:10:51.410Z,16.15
2022-09-13T19:12:43.299Z,10.50
2022-09-13T19:14:34.993Z,16.00
2022-09-13T19:16:25.355Z,14.77
2022-09-13T19:18:16.104Z,8.40
2022-09-13T19:20:07.737Z,16.48
2022-09-13T19:22:01.278Z,11.95
2022-09-13T19:23:59.357Z,10.90
2022-09-13T19:25:51.516Z,11.93
2022-09-13T19:27:44.570Z,17.13
2022-09-13T19:29:37.275Z,14.93
2022-09-13T19:31:28.570Z,14.15
2022-09-13T19:33:19.333Z,10.73
2022-09-13T19:35:09.922Z,13.18
2022-09-13T19:37:00.581Z,13.18
2022-09-13T19:38:51.592Z,10.73
2022-09-13T19:40:42.426Z,13.25
2022-09-13T19:42:32.812Z,9.02
2022-09-13T19:44:23.343Z,12.95
2022-09-13T19:46:16.741Z,13.07
2022-09-13T19:48:37.773Z,12.65
2022-09-13T19:50:17.836Z,12.75
2022-09-13T19:52:08.327Z,10.45
2022-09-13T19:54:00.638Z,12.93
2022-09-13T19:59:35.693Z,8.27
2022-09-13T20:01:28.748Z,13.80
2022-09-13T20:03:19.001Z,7.38
2022-09-13T20:05:09.533Z,10.38
2022-09-13T20:07:02.484Z,17.45
2022-09-13T20:08:53.336Z,12.75
2022-09-13T20:10:43.791Z,11.65
2022-09-13T20:12:34.559Z,17.00
2022-09-13T20:14:25.651Z,13.55
2022-09-13T20:16:18.560Z,13.20
2022-09-13T20:18:10.565Z,13.88
2022-09-13T20:20:01.382Z,8.35
2022-09-13T20:21:51.868Z,10.50
2022-09-13T20:23:42.925Z,12.48
2022-09-13T20:25:33.357Z,8.32
2022-09-13T20:27:26.834Z,13.35
2022-09-13T20:29:21.059Z,12.40
2022-09-13T20:31:11.870Z,13.18
2022-09-13T20:33:02.640Z,8.75
2022-09-13T20:34:54.991Z,11.00
2022-09-13T20:36:45.749Z,15.77
2022-09-13T20:38:36.456Z,10.27
2022-09-13T20:40:27.178Z,10.95
2022-09-13T20:42:17.799Z,14.05
2022-09-13T20:44:08.013Z,9.38
2022-09-13T20:45:58.539Z,9.27
2022-09-13T20:47:50.111Z,9.35
2022-09-13T20:49:40.799Z,15.32
2022-09-13T20:51:34.668Z,11.32
2022-09-13T20:53:25.245Z,19.33
2022-09-13T20:55:16.129Z,14.35
2022-09-13T20:57:06.746Z,13.43
2022-09-13T20:58:58.489Z,10.02
2022-09-13T21:00:49.222Z,12.38
2022-09-13T21:02:41.917Z,12.35
2022-09-13T21:04:32.610Z,18.00
2022-09-13T21:06:25.551Z,12.25
2022-09-13T21:08:17.317Z,10.75
2022-09-13T21:10:08.467Z,13.55
2022-09-13T21:11:59.030Z,11.40
2022-09-13T21:13:51.825Z,13.75
2022-09-13T21:15:42.116Z,13.43
2022-09-13T21:17:32.964Z,15.50
2022-09-13T21:19:23.468Z,7.28
2022-09-13T21:21:15.409Z,21.15
2022-09-13T21:23:05.666Z,15.23
2022-09-13T21:24:57.813Z,17.05
2022-09-13T21:26:48.485Z,12.80
2022-09-13T21:28:40.369Z,15.13
2022-09-13T21:30:31.308Z,11.00
2022-09-13T21:32:21.928Z,11.25
2022-09-13T21:34:14.115Z,13.60
2022-09-13T21:37:54.994Z,13.30
2022-09-13T21:39:45.631Z,13.23
2022-09-13T21:41:37.682Z,18.33
2022-09-13T21:43:28.899Z,14.55
2022-09-13T21:45:19.468Z,9.37
2022-09-13T21:47:09.823Z,10.48
2022-09-13T21:49:01.474Z,10.68
2022-09-13T21:50:51.703Z,16.60
2022-09-13T21:52:42.149Z,14.07
2022-09-13T21:54:32.518Z,13.38
2022-09-13T21:56:23.861Z,13.65
2022-09-13T21:58:15.697Z,8.13
2022-09-13T22:00:07.351Z,12.00
2022-09-13T22:01:57.941Z,10.57
2022-09-13T22:03:49.370Z,7.57
2022-09-13T22:05:40.204Z,12.20
2022-09-13T22:07:30.408Z,14.48
2022-09-13T22:09:22.637Z,18.65
2022-09-13T22:13:04.463Z,13.68
2022-09-13T22:14:56.306Z,14.13
2022-09-13T22:16:46.859Z,9.68
2022-09-13T22:18:37.695Z,8.18
2022-09-13T22:20:27.999Z,14.77
2022-09-13T22:22:18.389Z,8.80
2022-09-13T22:24:13.108Z,9.70
2022-09-13T22:26:05.693Z,5.93
2022-09-13T22:27:56.191Z,9.85
2022-09-13T22:29:46.415Z,10.15
2022-09-13T22:31:40.194Z,9.80
2022-09-13T22:33:30.790Z,10.32
2022-09-13T22:35:21.451Z,8.25
2022-09-13T22:37:11.798Z,9.45
2022-09-13T22:39:02.163Z,10.77
2022-09-13T22:40:55.122Z,6.22
2022-09-13T22:42:47.477Z,11.50
2022-09-13T22:46:30.617Z,5.15
2022-09-13T22:48:22.631Z,7.18
2022-09-13T22:50:12.842Z,12.90
2022-09-13T22:52:03.780Z,11.88
2022-09-13T22:53:54.683Z,8.95
2022-09-13T22:55:44.947Z,10.98
2022-09-13T22:57:35.212Z,9.70
2022-09-13T22:59:25.877Z,6.88
2022-09-13T23:01:18.063Z,8.68
2022-09-13T23:03:09.533Z,12.48
2022-09-13T23:05:01.647Z,13.00
2022-09-13T23:06:52.148Z,8.77
2022-09-13T23:08:42.748Z,7.82
2022-09-13T23:10:33.033Z,6.18
2022-09-13T23:12:23.241Z,9.60
2022-09-13T23:14:15.213Z,7.07
2022-09-13T23:16:06.954Z,11.37
2022-09-13T23:17:57.466Z,7.57
2022-09-13T23:19:47.775Z,9.38
2022-09-13T23:21:40.227Z,7.88
2022-09-13T23:23:31.092Z,4.82
2022-09-13T23:25:21.470Z,7.80
2022-09-13T23:27:12.074Z,9.55
2022-09-13T23:29:03.862Z,8.48
2022-09-13T23:30:54.196Z,6.20
2022-09-13T23:32:47.174Z,8.20
2022-09-13T23:34:37.967Z,8.25
2022-09-13T23:36:31.423Z,6.85
2022-09-13T23:38:23.414Z,8.98
2022-09-13T23:40:14.317Z,9.10
2022-09-13T23:42:05.120Z,7.50
2022-09-13T23:43:55.960Z,7.75
2022-09-13T23:45:46.350Z,10.27
2022-09-13T23:47:37.153Z,11.32
2022-09-13T23:49:27.416Z,8.68
2022-09-13T23:51:23.028Z,9.50
2022-09-13T23:53:14.335Z,7.70
2022-09-13T23:55:07.558Z,9.00
2022-09-13T23:56:57.740Z,11.98
2022-09-13T23:58:48.007Z,13.38
